Time;durP1;ratioP1;P1;durP2;ratioP2;P2;SDS_P1;SDS_P2;PMS_P1;PMS_P2;Temp;Humidity;BMP_temperature;BMP_pressure;BME280_temperature;BME280_humidity;BME280_pressure;Samples;Min_cycle;Max_cycle;Signal;HPM_P1;HPM_P2
2022/11/25 00:02:15;;;;;;;75.78;51.42;;;16.70;68.30;;;;;;4989407;28;89567;-51
2022/11/25 00:04:41;;;;;;;75.85;51.30;;;16.70;68.30;;;;;;4988979;28;92792;-52
2022/11/25 00:07:07;;;;;;;73.95;51.35;;;16.60;68.30;;;;;;4984458;28;91940;-54
2022/11/25 00:09:32;;;;;;;75.38;51.63;;;16.60;68.30;;;;;;4983681;27;91629;-51
2022/11/25 00:11:58;;;;;;;74.72;51.13;;;16.60;68.30;;;;;;4991102;28;92713;-52
2022/11/25 00:14:23;;;;;;;74.72;51.10;;;16.60;68.30;;;;;;4992627;28;91107;-51
2022/11/25 00:16:49;;;;;;;73.72;50.95;;;16.60;68.30;;;;;;4984217;28;90164;-52
2022/11/25 00:19:15;;;;;;;73.38;51.17;;;16.60;68.20;;;;;;4979102;28;95495;-50
2022/11/25 00:21:41;;;;;;;73.97;50.92;;;16.60;68.80;;;;;;4990588;28;90207;-54
2022/11/25 00:24:07;;;;;;;73.35;51.28;;;16.60;68.20;;;;;;4973183;28;92557;-52
2022/11/25 00:26:35;;;;;;;73.55;51.45;;;16.60;68.30;;;;;;4982843;28;91354;-51
2022/11/25 00:29:04;;;;;;;72.70;51.00;;;16.60;68.30;;;;;;4983225;28;90792;-49
2022/11/25 00:31:32;;;;;;;74.68;51.38;;;16.60;68.30;;;;;;4985551;28;89088;-49
2022/11/25 00:33:58;;;;;;;73.15;50.80;;;16.60;68.30;;;;;;4991096;28;91524;-52
2022/11/25 00:36:26;;;;;;;74.35;50.95;;;16.60;68.30;;;;;;4980212;28;93873;-52
2022/11/25 00:39:01;;;;;;;73.95;51.42;;;16.60;68.30;;;;;;4990869;28;91125;-49
2022/11/25 00:47:00;;;;;;;73.57;50.95;;;16.50;68.30;;;;;;4988501;28;90993;-54
2022/11/25 00:49:26;;;;;;;73.32;51.13;;;16.50;68.40;;;;;;4982569;28;90389;-51
2022/11/25 00:51:52;;;;;;;74.97;51.10;;;16.50;68.30;;;;;;4978999;28;90321;-51
2022/11/25 00:54:18;;;;;;;74.47;50.85;;;16.60;68.30;;;;;;4988580;28;90673;-51
2022/11/25 00:56:43;;;;;;;72.18;50.63;;;16.50;68.30;;;;;;4982160;28;94077;-52
2022/11/25 00:59:09;;;;;;;72.68;50.50;;;16.50;68.40;;;;;;4982523;28;92057;-51
2022/11/25 01:01:35;;;;;;;74.03;51.35;;;16.50;68.50;;;;;;4978414;28;90006;-54
2022/11/25 01:04:02;;;;;;;72.80;51.25;;;16.50;68.40;;;;;;4981894;28;90746;-50
2022/11/25 01:06:28;;;;;;;72.07;50.92;;;16.50;68.40;;;;;;4980689;28;90432;-53
2022/11/25 01:08:53;;;;;;;73.07;50.83;;;16.50;68.40;;;;;;4986888;28;92208;-53
2022/11/25 01:11:22;;;;;;;72.53;50.78;;;16.50;68.40;;;;;;4984786;28;90595;-52
2022/11/25 01:13:48;;;;;;;71.95;50.65;;;16.50;68.40;;;;;;4980021;28;91923;-54
2022/11/25 01:16:17;;;;;;;72.70;50.72;;;16.50;68.40;;;;;;4982355;27;92612;-51
2022/11/25 01:18:43;;;;;;;73.68;51.03;;;16.40;68.40;;;;;;4977995;28;90086;-49
2022/11/25 01:21:27;;;;;;;71.97;50.38;;;16.50;68.50;;;;;;4991827;28;89256;-53
2022/11/25 01:23:53;;;;;;;71.60;50.65;;;16.40;68.40;;;;;;4985074;28;89985;-51
2022/11/25 01:26:22;;;;;;;74.80;50.72;;;16.40;68.40;;;;;;4984560;28;90362;-54
2022/11/25 01:28:48;;;;;;;72.10;50.45;;;16.40;68.40;;;;;;4987999;28;92446;-54
2022/11/25 01:31:17;;;;;;;71.97;50.63;;;16.40;68.40;;;;;;4980091;27;93037;-53
2022/11/25 01:33:44;;;;;;;73.80;52.00;;;16.40;68.40;;;;;;4980578;28;91045;-53
2022/11/25 01:36:12;;;;;;;72.45;50.53;;;16.40;68.40;;;;;;4985147;28;91598;-51
2022/11/25 01:38:38;;;;;;;73.80;50.90;;;16.40;68.50;;;;;;4984990;28;90558;-52
2022/11/25 01:41:06;;;;;;;72.97;50.90;;;16.40;68.50;;;;;;4982899;28;89884;-55
2022/11/25 01:43:32;;;;;;;72.47;50.53;;;16.40;68.50;;;;;;4983806;27;90399;-53
2022/11/25 01:46:16;;;;;;;73.13;50.70;;;16.40;68.50;;;;;;4981146;28;90703;-49
2022/11/25 01:48:56;;;;;;;72.25;50.55;;;16.30;68.40;;;;;;4979775;28;91614;-54
2022/11/25 01:51:42;;;;;;;71.93;50.60;;;16.30;68.60;;;;;;4987112;28;89920;-49
2022/11/25 01:54:12;;;;;;;71.75;50.00;;;16.40;68.70;;;;;;4972800;28;93330;-52
2022/11/25 01:56:47;;;;;;;71.97;50.63;;;16.40;68.60;;;;;;4988173;28;91907;-53
2022/11/25 01:59:13;;;;;;;72.65;50.47;;;16.30;68.60;;;;;;4990156;28;89533;-51
2022/11/25 02:01:38;;;;;;;72.78;50.90;;;16.40;68.60;;;;;;4981497;28;90285;-54
2022/11/25 02:04:06;;;;;;;71.63;50.35;;;16.30;68.60;;;;;;4987834;28;89746;-56
2022/11/25 02:06:37;;;;;;;72.47;50.40;;;16.30;68.50;;;;;;4980924;28;92308;-52
2022/11/25 02:09:08;;;;;;;71.43;50.58;;;16.30;68.50;;;;;;4978745;28;90006;-52
2022/11/25 02:11:37;;;;;;;72.45;50.65;;;16.30;68.60;;;;;;4984055;28;91687;-52
2022/11/25 02:14:03;;;;;;;71.13;49.95;;;16.30;68.70;;;;;;4976958;28;90290;-54
2022/11/25 02:16:29;;;;;;;71.70;50.67;;;16.30;68.60;;;;;;4976762;28;90788;-53
2022/11/25 02:18:54;;;;;;;72.57;50.22;;;16.30;68.70;;;;;;4987295;28;90473;-51
2022/11/25 02:21:25;;;;;;;72.47;50.58;;;16.20;68.70;;;;;;4978148;28;92355;-53
2022/11/25 02:23:55;;;;;;;72.50;50.78;;;16.30;68.60;;;;;;4983148;28;90926;-52
2022/11/25 02:26:21;;;;;;;72.05;50.67;;;16.30;68.60;;;;;;4979554;28;90366;-52
2022/11/25 02:28:47;;;;;;;72.57;50.42;;;16.20;68.50;;;;;;4985615;28;94381;-53
2022/11/25 02:31:19;;;;;;;71.95;50.35;;;16.20;68.60;;;;;;4985058;28;91583;-55
2022/11/25 02:33:44;;;;;;;74.13;50.38;;;16.20;68.60;;;;;;4979864;28;90047;-55
2022/11/25 02:36:15;;;;;;;71.45;50.63;;;16.20;68.80;;;;;;4977523;28;89976;-52
2022/11/25 02:38:51;;;;;;;72.07;50.33;;;16.20;68.80;;;;;;4988782;28;94534;-55
2022/11/25 02:41:23;;;;;;;72.13;50.22;;;16.20;68.80;;;;;;4979491;28;92060;-51
2022/11/25 02:43:49;;;;;;;73.13;50.75;;;16.20;68.90;;;;;;4992466;27;91656;-54
2022/11/25 02:46:18;;;;;;;71.70;50.40;;;16.20;68.80;;;;;;4970484;28;92830;-53
2022/11/25 02:48:44;;;;;;;72.65;50.35;;;16.20;68.90;;;;;;4983602;28;91328;-55
2022/11/25 02:51:12;;;;;;;72.22;50.70;;;16.20;68.90;;;;;;4978752;27;94532;-55
2022/11/25 02:53:38;;;;;;;71.75;50.92;;;16.20;69.00;;;;;;4972439;28;91163;-52
2022/11/25 02:56:04;;;;;;;71.65;50.38;;;16.10;68.90;;;;;;4977303;28;92594;-51
2022/11/25 02:58:30;;;;;;;71.45;50.40;;;16.20;68.90;;;;;;4979361;28;89757;-49
2022/11/25 03:00:56;;;;;;;71.55;50.25;;;16.20;69.00;;;;;;4977703;28;89596;-54
2022/11/25 03:03:21;;;;;;;73.53;50.33;;;16.10;68.90;;;;;;4980189;28;89825;-54
2022/11/25 03:05:47;;;;;;;72.93;50.67;;;16.10;69.00;;;;;;4982620;28;92720;-54
2022/11/25 03:08:13;;;;;;;72.32;50.65;;;16.10;69.00;;;;;;4983738;28;90967;-54
2022/11/25 03:10:39;;;;;;;72.60;50.47;;;16.10;69.00;;;;;;4977919;28;90741;-51
2022/11/25 03:13:06;;;;;;;71.38;50.53;;;16.10;69.00;;;;;;4977704;28;93771;-51
2022/11/25 03:15:32;;;;;;;71.22;50.33;;;16.10;69.00;;;;;;4976236;28;91273;-50
2022/11/25 03:17:58;;;;;;;71.50;50.33;;;16.10;69.00;;;;;;4989107;28;90785;-53
2022/11/25 03:20:24;;;;;;;70.68;50.15;;;16.10;69.00;;;;;;4994814;28;90692;-53
2022/11/25 03:22:50;;;;;;;72.65;50.33;;;16.00;68.90;;;;;;4980246;28;91289;-55
2022/11/25 03:25:16;;;;;;;70.85;50.45;;;16.10;69.70;;;;;;4983222;28;89048;-51
2022/11/25 03:27:42;;;;;;;71.22;50.20;;;16.10;69.00;;;;;;4977362;28;91787;-53
2022/11/25 03:30:14;;;;;;;71.88;50.10;;;16.10;69.00;;;;;;4976750;27;89943;-55
2022/11/25 03:32:41;;;;;;;70.75;50.38;;;16.00;69.00;;;;;;4976081;28;90854;-50
2022/11/25 03:35:08;;;;;;;72.53;50.47;;;16.00;69.00;;;;;;4985057;28;90812;-53
2022/11/25 03:37:33;;;;;;;71.05;50.20;;;16.10;69.20;;;;;;4978910;28;89590;-54
2022/11/25 03:39:59;;;;;;;71.03;50.03;;;16.00;69.00;;;;;;4984973;28;91194;-54
2022/11/25 03:42:25;;;;;;;70.00;50.00;;;16.00;69.00;;;;;;4979101;28;90524;-54
2022/11/25 03:44:50;;;;;;;71.55;50.30;;;16.00;69.00;;;;;;4984276;28;89933;-55
2022/11/25 03:47:16;;;;;;;71.45;50.65;;;16.00;69.00;;;;;;4988953;28;91362;-53
2022/11/25 03:49:42;;;;;;;71.60;50.25;;;16.00;69.00;;;;;;4978662;28;91423;-51
2022/11/25 03:52:07;;;;;;;72.65;50.65;;;16.10;69.10;;;;;;4980186;28;92985;-50
2022/11/25 03:54:33;;;;;;;71.22;49.90;;;16.00;69.00;;;;;;4975597;28;89934;-53
2022/11/25 03:56:59;;;;;;;71.72;50.30;;;16.00;69.00;;;;;;4990424;28;90637;-54
2022/11/25 03:59:24;;;;;;;70.90;50.22;;;16.00;69.00;;;;;;4984657;28;90657;-52
2022/11/25 04:01:50;;;;;;;70.93;50.10;;;16.00;68.90;;;;;;4983784;27;90023;-51
2022/11/25 04:04:16;;;;;;;70.97;50.08;;;16.00;69.00;;;;;;4979402;28;90304;-52
2022/11/25 04:06:41;;;;;;;71.45;50.20;;;16.00;68.90;;;;;;4977925;28;90633;-50
2022/11/25 04:09:08;;;;;;;72.05;50.28;;;16.00;69.10;;;;;;4974976;28;90068;-52
2022/11/25 04:14:18;;;;;;;70.70;50.42;;;16.00;69.00;;;;;;4981013;28;89507;-52
2022/11/25 04:16:44;;;;;;;71.57;50.30;;;16.00;69.00;;;;;;4993623;28;89994;-51
2022/11/25 04:19:09;;;;;;;71.32;49.78;;;15.90;69.10;;;;;;4980414;28;93694;-53
2022/11/25 04:21:35;;;;;;;73.13;50.45;;;15.90;69.10;;;;;;4990373;27;91063;-52
2022/11/25 04:24:02;;;;;;;70.15;49.97;;;16.00;69.10;;;;;;4989058;28;93678;-53
2022/11/25 04:26:27;;;;;;;72.30;50.25;;;15.90;69.80;;;;;;4985678;28;90854;-53
2022/11/25 04:28:53;;;;;;;71.82;50.33;;;15.90;69.10;;;;;;4979094;28;89488;-50
2022/11/25 04:31:19;;;;;;;72.75;50.22;;;15.90;69.10;;;;;;4985635;28;89578;-51
2022/11/25 04:33:44;;;;;;;71.28;50.42;;;15.90;69.10;;;;;;4984458;28;93807;-53
2022/11/25 04:36:10;;;;;;;70.07;50.22;;;15.90;69.10;;;;;;4980217;27;90575;-53
2022/11/25 04:38:36;;;;;;;71.28;50.10;;;15.90;69.20;;;;;;4982750;28;88976;-52
2022/11/25 04:41:01;;;;;;;71.40;50.03;;;15.90;69.30;;;;;;4991985;28;92299;-52
2022/11/25 04:43:27;;;;;;;70.47;49.92;;;15.90;69.30;;;;;;4983692;28;91065;-53
2022/11/25 04:45:53;;;;;;;70.32;50.00;;;15.90;69.20;;;;;;4980109;28;90541;-53
2022/11/25 04:48:18;;;;;;;70.50;49.78;;;15.90;69.20;;;;;;4988396;28;89822;-53
2022/11/25 04:50:44;;;;;;;71.75;50.20;;;15.90;69.10;;;;;;4979822;28;90815;-51
2022/11/25 04:53:10;;;;;;;70.78;50.20;;;15.90;69.20;;;;;;4987251;28;91109;-53
2022/11/25 04:55:36;;;;;;;71.25;50.38;;;15.90;69.20;;;;;;4985443;28;90241;-52
2022/11/25 04:58:02;;;;;;;70.65;50.25;;;15.90;69.30;;;;;;4987494;27;90831;-52
2022/11/25 05:00:27;;;;;;;73.07;50.30;;;15.90;69.20;;;;;;4980697;28;90216;-49
2022/11/25 05:02:53;;;;;;;70.18;49.63;;;15.80;69.30;;;;;;4979013;28;91193;-50
2022/11/25 05:05:19;;;;;;;70.85;50.08;;;15.80;69.20;;;;;;4978877;28;92202;-51
2022/11/25 05:07:44;;;;;;;70.85;50.00;;;15.90;69.30;;;;;;4986972;28;90767;-55
2022/11/25 05:10:10;;;;;;;72.20;50.03;;;15.80;69.30;;;;;;4980321;28;90642;-54
2022/11/25 05:12:37;;;;;;;72.25;50.38;;;15.80;69.30;;;;;;4985538;28;90695;-55
2022/11/25 05:15:04;;;;;;;70.55;50.30;;;15.80;69.30;;;;;;4988375;28;89903;-53
2022/11/25 05:17:31;;;;;;;69.85;49.85;;;15.80;69.40;;;;;;4988135;28;91165;-52
2022/11/25 05:19:57;;;;;;;70.88;50.03;;;15.80;69.40;;;;;;4980957;28;89916;-52
2022/11/25 05:22:26;;;;;;;72.32;50.15;;;15.80;69.50;;;;;;4979012;28;96493;-50
2022/11/25 05:24:52;;;;;;;70.32;49.83;;;15.80;69.50;;;;;;4979424;28;92673;-53
2022/11/25 05:27:18;;;;;;;71.82;50.05;;;15.80;69.50;;;;;;4990544;28;90246;-52
2022/11/25 05:29:44;;;;;;;71.68;50.08;;;15.80;69.40;;;;;;4976707;28;93861;-52
2022/11/25 05:32:10;;;;;;;71.85;50.28;;;15.80;69.50;;;;;;4971570;28;91458;-53
2022/11/25 05:34:36;;;;;;;71.95;50.28;;;15.70;69.50;;;;;;4989579;28;90712;-51
2022/11/25 05:37:02;;;;;;;73.25;50.63;;;15.70;69.50;;;;;;4986291;28;90553;-51
2022/11/25 05:39:28;;;;;;;72.78;50.22;;;15.70;69.60;;;;;;4982911;28;90331;-52
2022/11/25 05:41:53;;;;;;;70.72;50.00;;;15.70;69.50;;;;;;4976202;28;89945;-49
2022/11/25 05:44:19;;;;;;;72.22;50.17;;;15.70;69.50;;;;;;4978971;28;94204;-52
2022/11/25 05:46:45;;;;;;;73.78;50.15;;;15.70;69.60;;;;;;4981090;28;91710;-53
2022/11/25 05:49:12;;;;;;;75.10;50.10;;;15.70;69.80;;;;;;4989733;28;91441;-51
2022/11/25 05:51:37;;;;;;;72.13;49.78;;;15.70;69.60;;;;;;4983079;28;89254;-50
2022/11/25 05:54:03;;;;;;;75.40;50.25;;;15.70;69.90;;;;;;4981436;28;90585;-50
2022/11/25 05:56:29;;;;;;;79.95;50.20;;;15.70;69.80;;;;;;4979487;28;90350;-52
2022/11/25 05:58:54;;;;;;;76.80;50.03;;;15.70;69.90;;;;;;4983355;28;91217;-50
2022/11/25 06:01:22;;;;;;;75.47;50.33;;;15.60;70.00;;;;;;4972347;28;92533;-52
2022/11/25 06:03:47;;;;;;;76.00;50.75;;;15.60;70.50;;;;;;4990716;27;89866;-50
2022/11/25 06:06:13;;;;;;;77.85;51.55;;;15.60;71.20;;;;;;4981900;27;92919;-49
2022/11/25 06:08:39;;;;;;;75.55;51.42;;;15.50;71.70;;;;;;4982292;27;94300;-50
2022/11/25 06:11:16;;;;;;;82.05;51.75;;;15.60;71.90;;;;;;4983047;27;91198;-55
2022/11/25 06:13:45;;;;;;;82.50;51.70;;;15.60;72.00;;;;;;4972543;28;93257;-53
2022/11/25 06:16:16;;;;;;;79.15;51.58;;;15.60;72.00;;;;;;4981738;28;90611;-50
2022/11/25 06:18:42;;;;;;;79.50;51.70;;;15.60;72.00;;;;;;4981858;28;89752;-50
2022/11/25 06:21:09;;;;;;;82.22;51.30;;;15.60;72.30;;;;;;4982590;28;90165;-51
2022/11/25 06:23:36;;;;;;;77.90;51.05;;;15.60;72.10;;;;;;4982181;28;92309;-51
2022/11/25 06:26:19;;;;;;;81.97;51.25;;;15.50;72.20;;;;;;4976772;28;91154;-54
2022/11/25 06:28:45;;;;;;;80.95;50.72;;;15.60;72.00;;;;;;4974264;28;90049;-49
2022/11/25 06:31:17;;;;;;;75.07;50.97;;;15.50;71.90;;;;;;4977361;28;89754;-50
2022/11/25 06:33:46;;;;;;;80.40;52.03;;;15.50;71.80;;;;;;4987242;28;91172;-52
2022/11/25 06:36:15;;;;;;;80.03;51.70;;;15.60;72.30;;;;;;4984696;28;91352;-53
2022/11/25 06:38:43;;;;;;;83.20;51.92;;;15.60;72.30;;;;;;4977419;28;90822;-49
2022/11/25 06:41:08;;;;;;;86.85;51.67;;;15.60;72.50;;;;;;4975065;28;90545;-49
2022/11/25 06:43:34;;;;;;;80.55;52.15;;;15.50;72.70;;;;;;4982756;28;90246;-50
2022/11/25 06:46:08;;;;;;;80.50;51.92;;;15.60;73.10;;;;;;4984778;27;92691;-53
2022/11/25 06:48:34;;;;;;;78.15;52.13;;;15.50;73.00;;;;;;4989004;28;90371;-51
2022/11/25 06:51:03;;;;;;;81.82;52.22;;;15.60;73.00;;;;;;4980657;28;91998;-52
2022/11/25 06:53:30;;;;;;;84.22;52.35;;;15.60;73.20;;;;;;4982338;27;90614;-54
2022/11/25 06:56:12;;;;;;;82.47;52.55;;;15.60;73.40;;;;;;4976983;28;90175;-50
2022/11/25 06:58:39;;;;;;;84.43;52.55;;;15.50;73.70;;;;;;4979147;28;90545;-50
2022/11/25 07:01:09;;;;;;;83.43;52.70;;;15.50;73.80;;;;;;4977577;28;89970;-52
2022/11/25 07:03:35;;;;;;;86.55;52.92;;;15.50;73.50;;;;;;4978887;28;92300;-48
2022/11/25 07:06:01;;;;;;;82.88;52.35;;;15.50;73.60;;;;;;4992359;28;89049;-51
2022/11/25 07:08:27;;;;;;;83.38;52.65;;;15.50;73.90;;;;;;4974042;28;90052;-50
2022/11/25 07:10:52;;;;;;;81.32;51.63;;;15.50;74.00;;;;;;4977947;28;90286;-49
2022/11/25 07:13:19;;;;;;;80.20;52.38;;;15.50;74.30;;;;;;4968371;28;94414;-50
2022/11/25 07:15:45;;;;;;;87.57;52.70;;;15.50;74.40;;;;;;4978070;28;89800;-51
2022/11/25 07:18:11;;;;;;;90.38;52.50;;;15.50;75.00;;;;;;4975908;28;89992;-53
2022/11/25 07:20:37;;;;;;;79.75;51.28;;;15.50;75.40;;;;;;4967889;28;91331;-51
2022/11/25 07:23:03;;;;;;;98.05;52.92;;;15.50;74.90;;;;;;4976929;28;96710;-51
2022/11/25 07:25:29;;;;;;;85.93;52.03;;;15.50;74.70;;;;;;4983198;28;89906;-50
2022/11/25 07:27:54;;;;;;;82.57;51.90;;;15.40;74.60;;;;;;4979875;28;90854;-52
2022/11/25 07:30:20;;;;;;;82.35;52.42;;;15.40;74.80;;;;;;4979144;28;90367;-51
2022/11/25 07:32:46;;;;;;;76.55;51.90;;;15.40;74.70;;;;;;4988582;28;89712;-51
2022/11/25 07:35:12;;;;;;;76.53;51.28;;;15.40;74.70;;;;;;4974205;28;91813;-53
2022/11/25 07:37:37;;;;;;;81.32;51.25;;;15.40;74.70;;;;;;4985943;28;90401;-50
2022/11/25 07:40:04;;;;;;;81.10;52.13;;;15.40;74.50;;;;;;4978431;28;91243;-51
2022/11/25 07:42:29;;;;;;;78.60;51.38;;;15.40;74.40;;;;;;4995648;28;90097;-50
2022/11/25 07:44:55;;;;;;;79.72;51.75;;;15.40;74.60;;;;;;4982666;28;90402;-52
2022/11/25 07:47:21;;;;;;;85.57;52.03;;;15.40;74.50;;;;;;4981055;28;90767;-51
2022/11/25 07:49:46;;;;;;;80.43;51.80;;;15.40;74.30;;;;;;4978814;28;91470;-50
2022/11/25 07:52:12;;;;;;;78.90;52.20;;;15.40;74.30;;;;;;4980184;28;89791;-52
2022/11/25 07:54:38;;;;;;;82.03;51.75;;;15.50;74.30;;;;;;4980915;28;88930;-51
2022/11/25 07:57:03;;;;;;;85.03;52.53;;;15.50;74.00;;;;;;4980653;28;90725;-50
2022/11/25 07:59:29;;;;;;;85.78;53.10;;;15.50;73.90;;;;;;4984364;28;90079;-51
2022/11/25 08:01:55;;;;;;;89.88;53.08;;;15.50;74.00;;;;;;4975657;28;92473;-53
2022/11/25 08:04:21;;;;;;;94.90;54.28;;;15.40;74.10;;;;;;4984240;28;89612;-50
2022/11/25 08:06:49;;;;;;;98.68;53.88;;;15.50;73.80;;;;;;4981763;28;90998;-52
2022/11/25 08:09:18;;;;;;;88.35;54.22;;;15.50;74.00;;;;;;4986329;28;93074;-47
2022/11/25 08:11:44;;;;;;;97.85;55.22;;;15.60;74.20;;;;;;4980882;27;90945;-48
2022/11/25 08:14:10;;;;;;;98.82;55.30;;;15.60;73.70;;;;;;4982068;28;91431;-45
2022/11/25 08:16:36;;;;;;;94.18;54.80;;;15.60;73.60;;;;;;4979425;28;94093;-48
2022/11/25 08:19:04;;;;;;;92.50;54.78;;;15.50;73.40;;;;;;4973205;28;90595;-47
2022/11/25 08:21:30;;;;;;;91.82;54.83;;;15.60;73.40;;;;;;4975266;28;90156;-47
2022/11/25 08:23:56;;;;;;;95.38;55.15;;;15.50;73.50;;;;;;4980374;28;90523;-49
2022/11/25 08:26:30;;;;;;;91.88;54.60;;;15.50;73.40;;;;;;4987988;28;91181;-48
2022/11/25 08:28:57;;;;;;;90.65;53.72;;;15.50;73.40;;;;;;4987844;28;91695;-46
2022/11/25 08:31:31;;;;;;;88.15;54.53;;;15.50;73.30;;;;;;4980240;28;90280;-51
2022/11/25 08:33:57;;;;;;;86.15;54.15;;;15.50;73.40;;;;;;4971782;28;90436;-48
2022/11/25 08:36:25;;;;;;;87.85;54.25;;;15.50;73.30;;;;;;4979986;28;90022;-48
2022/11/25 08:38:54;;;;;;;95.50;54.72;;;15.60;73.10;;;;;;4988824;28;92463;-48
2022/11/25 08:41:22;;;;;;;89.13;54.10;;;15.60;72.90;;;;;;4986939;28;89731;-48
2022/11/25 08:43:48;;;;;;;83.78;53.72;;;15.50;73.70;;;;;;4981705;28;88852;-48
2022/11/25 08:46:17;;;;;;;86.15;54.33;;;15.60;72.90;;;;;;4973125;28;89866;-48
2022/11/25 08:48:43;;;;;;;88.75;53.83;;;15.60;72.80;;;;;;4988620;27;90381;-48
2022/11/25 08:51:21;;;;;;;89.10;54.33;;;15.60;73.20;;;;;;4977953;27;91757;-47
2022/11/25 08:53:47;;;;;;;92.55;54.30;;;15.60;73.10;;;;;;4979774;27;92263;-48
2022/11/25 08:56:13;;;;;;;90.00;53.78;;;15.60;73.10;;;;;;4983230;28;90445;-48
2022/11/25 08:58:39;;;;;;;88.88;53.80;;;15.60;73.10;;;;;;4983471;28;92795;-47
2022/11/25 09:01:06;;;;;;;84.40;53.05;;;15.70;73.60;;;;;;4980481;28;89648;-47
2022/11/25 09:03:33;;;;;;;88.80;53.28;;;15.60;73.60;;;;;;4985161;28;90880;-48
2022/11/25 09:06:00;;;;;;;94.22;54.35;;;15.70;73.90;;;;;;4977972;28;90147;-49
2022/11/25 09:08:26;;;;;;;93.60;54.28;;;15.70;74.00;;;;;;4983013;28;89675;-51
2022/11/25 09:10:52;;;;;;;88.47;53.28;;;15.70;74.30;;;;;;4981882;28;92397;-48
2022/11/25 09:13:17;;;;;;;89.57;53.42;;;15.70;74.10;;;;;;4978277;28;90243;-47
2022/11/25 09:15:43;;;;;;;91.75;53.72;;;15.70;73.90;;;;;;4972717;28;91982;-47
2022/11/25 09:18:10;;;;;;;84.38;53.40;;;15.70;73.80;;;;;;4977903;28;89934;-49
2022/11/25 09:20:39;;;;;;;88.60;53.42;;;15.70;74.40;;;;;;4975511;28;90128;-50
2022/11/25 09:23:07;;;;;;;90.32;53.42;;;15.70;74.20;;;;;;4981537;28;92810;-48
2022/11/25 09:25:33;;;;;;;88.93;53.55;;;15.70;75.40;;;;;;4984681;28;90928;-48
2022/11/25 09:27:58;;;;;;;90.55;53.35;;;15.70;75.00;;;;;;4984962;28;89912;-50
2022/11/25 09:30:25;;;;;;;88.18;53.45;;;15.70;74.80;;;;;;4971936;27;89679;-50
2022/11/25 09:32:52;;;;;;;83.80;52.88;;;15.70;74.90;;;;;;4975452;28;90394;-47
2022/11/25 09:35:19;;;;;;;87.95;53.35;;;15.70;74.90;;;;;;4981815;28;91034;-51
2022/11/25 09:37:44;;;;;;;86.80;53.53;;;15.70;76.10;;;;;;4978635;28;90284;-48
2022/11/25 09:40:36;;;;;;;81.38;52.75;;;15.70;75.70;;;;;;4975094;28;94247;-47
2022/11/25 09:49:01;;;;;;;83.00;52.30;;;15.80;75.20;;;;;;4976186;28;92882;-45
2022/11/25 09:51:37;;;;;;;85.07;52.88;;;15.80;75.00;;;;;;4973976;28;95801;-45
2022/11/25 09:54:15;;;;;;;78.38;52.80;;;15.70;75.00;;;;;;4982018;28;90492;-45
2022/11/25 09:56:46;;;;;;;85.18;52.83;;;15.80;74.90;;;;;;4974042;28;92304;-44
2022/11/25 09:59:25;;;;;;;87.55;53.13;;;15.80;74.50;;;;;;4982809;27;90790;-47
2022/11/25 10:02:10;;;;;;;82.55;52.85;;;15.80;74.50;;;;;;4977584;28;90223;-46
2022/11/25 10:04:43;;;;;;;86.80;53.15;;;15.80;74.50;;;;;;4975029;28;91664;-46
2022/11/25 10:07:20;;;;;;;82.72;52.67;;;15.80;74.50;;;;;;4977578;28;91909;-44
2022/11/25 10:09:46;;;;;;;84.43;52.17;;;15.90;74.40;;;;;;4977500;28;90111;-45
2022/11/25 10:12:24;;;;;;;89.47;53.30;;;15.90;74.70;;;;;;4977454;28;94818;-45
2022/11/25 10:15:02;;;;;;;81.45;52.83;;;15.90;75.00;;;;;;4978755;28;89971;-45
2022/11/25 10:17:44;;;;;;;82.55;52.80;;;15.90;74.90;;;;;;4981951;28;90895;-45
2022/11/25 10:20:24;;;;;;;85.68;53.38;;;16.00;75.00;;;;;;4974906;28;90327;-47
2022/11/25 10:22:56;;;;;;;84.13;52.60;;;16.00;74.80;;;;;;4973884;28;94674;-45
2022/11/25 10:25:24;;;;;;;85.47;53.10;;;15.90;74.80;;;;;;4974379;28;90519;-48
2022/11/25 10:27:58;;;;;;;81.07;52.65;;;16.00;74.60;;;;;;4977123;28;91545;-48
2022/11/25 10:30:25;;;;;;;79.05;52.72;;;16.00;74.30;;;;;;4977723;28;89997;-45
2022/11/25 10:32:58;;;;;;;79.43;52.40;;;16.00;74.20;;;;;;4981816;28;92465;-44
2022/11/25 10:35:32;;;;;;;84.38;52.03;;;16.10;74.10;;;;;;4976000;28;93264;-45
2022/11/25 10:38:00;;;;;;;83.20;52.28;;;16.10;74.00;;;;;;4969305;28;92018;-48
2022/11/25 10:40:26;;;;;;;83.45;52.78;;;16.20;73.50;;;;;;4972895;28;92872;-45
2022/11/25 10:42:52;;;;;;;80.07;52.28;;;16.20;73.50;;;;;;4984509;28;94158;-44
2022/11/25 10:45:23;;;;;;;81.07;52.17;;;16.20;73.50;;;;;;4973908;27;92177;-47
2022/11/25 10:47:58;;;;;;;;;;;16.20;73.30;;;;;;4979694;28;91380;-49
2022/11/25 10:50:41;;;;;;;78.47;52.20;;;16.20;73.30;;;;;;4986150;27;89509;-47
2022/11/25 10:53:23;;;;;;;83.38;52.33;;;16.20;73.40;;;;;;4976693;28;91930;-50
2022/11/25 10:55:56;;;;;;;;;;;16.20;73.60;;;;;;4987881;28;89977;-47
2022/11/25 10:58:26;;;;;;;84.07;52.35;;;16.30;73.90;;;;;;4979077;28;92670;-45
2022/11/25 11:01:15;;;;;;;86.53;52.70;;;16.30;73.70;;;;;;4980221;28;90460;-46
2022/11/25 11:03:44;;;;;;;81.72;52.13;;;16.30;73.90;;;;;;4974813;28;92022;-46
2022/11/25 11:06:40;;;;;;;79.82;52.28;;;16.40;73.80;;;;;;4981569;28;89873;-47
2022/11/25 11:09:32;;;;;;;85.90;52.55;;;16.40;73.60;;;;;;4967461;28;90042;-49
2022/11/25 11:12:17;;;;;;;83.40;52.38;;;16.30;73.70;;;;;;4975128;28;92793;-49
2022/11/25 11:14:43;;;;;;;87.25;52.65;;;16.30;73.90;;;;;;4972252;28;92475;-49
2022/11/25 11:17:34;;;;;;;81.75;52.42;;;16.30;74.60;;;;;;4983279;28;89044;-45
2022/11/25 11:20:05;;;;;;;83.35;52.58;;;16.40;75.20;;;;;;4982478;28;89991;-46
2022/11/25 11:22:33;;;;;;;79.45;52.30;;;16.40;75.40;;;;;;4979253;28;91344;-48
2022/11/25 11:25:30;;;;;;;87.13;52.45;;;16.40;75.60;;;;;;4975017;28;90903;-48
2022/11/25 11:27:57;;;;;;;80.63;52.10;;;16.40;75.40;;;;;;4991616;28;91233;-46
2022/11/25 11:30:26;;;;;;;81.50;52.38;;;16.40;75.60;;;;;;4982285;28;89865;-50
2022/11/25 11:33:03;;;;;;;83.82;52.05;;;16.40;75.70;;;;;;4976178;28;90025;-50
2022/11/25 11:36:04;;;;;;;82.55;52.33;;;16.40;75.80;;;;;;4982705;28;90214;-50
2022/11/25 11:38:52;;;;;;;82.00;52.50;;;16.50;75.90;;;;;;4979086;27;94691;-48
2022/11/25 11:41:52;;;;;;;81.38;52.65;;;16.50;75.30;;;;;;4983772;28;92865;-48
2022/11/25 11:44:27;;;;;;;80.93;52.65;;;16.50;75.00;;;;;;4980620;28;90306;-47
2022/11/25 11:47:02;;;;;;;81.43;52.92;;;16.40;75.20;;;;;;4978818;28;90592;-51
2022/11/25 11:49:39;;;;;;;80.97;52.22;;;16.50;75.50;;;;;;4980631;28;95181;-46
2022/11/25 11:52:09;;;;;;;80.65;52.50;;;16.50;75.20;;;;;;4982761;27;91264;-52
2022/11/25 11:55:00;;;;;;;81.60;53.10;;;16.50;75.50;;;;;;4984545;28;90202;-48
2022/11/25 11:57:49;;;;;;;83.50;52.55;;;16.50;75.60;;;;;;4980988;27;91018;-50
2022/11/25 12:00:18;;;;;;;83.38;52.58;;;16.60;75.50;;;;;;4985716;28;90417;-48
2022/11/25 12:03:13;;;;;;;81.18;52.35;;;16.50;75.50;;;;;;4987958;27;92717;-51
2022/11/25 12:05:38;;;;;;;79.57;52.13;;;16.50;75.50;;;;;;4975467;28;90555;-46
2022/11/25 12:08:19;;;;;;;83.22;52.35;;;16.60;75.10;;;;;;4974021;28;90473;-49
2022/11/25 12:10:53;;;;;;;84.47;52.35;;;16.60;74.70;;;;;;4973407;28;89354;-46
2022/11/25 12:13:22;;;;;;;85.57;52.30;;;16.70;74.40;;;;;;4983657;27;89982;-49
2022/11/25 12:15:54;;;;;;;89.38;52.30;;;16.60;74.60;;;;;;4973882;28;96095;-49
2022/11/25 12:18:32;;;;;;;81.15;52.40;;;16.70;75.20;;;;;;4984153;28;90996;-45
2022/11/25 12:21:11;;;;;;;80.95;52.88;;;16.80;75.10;;;;;;4978986;28;89613;-46
2022/11/25 12:24:08;;;;;;;82.10;51.97;;;16.90;75.10;;;;;;4987683;28;96038;-46
2022/11/25 12:26:46;;;;;;;82.30;52.22;;;16.90;75.20;;;;;;4975277;28;90947;-47
2022/11/25 12:29:18;;;;;;;78.70;52.25;;;17.00;75.00;;;;;;4979993;28;90452;-47
2022/11/25 12:32:01;;;;;;;83.60;52.38;;;17.00;74.90;;;;;;4981338;28;89994;-47
2022/11/25 12:34:43;;;;;;;82.88;52.35;;;17.00;75.00;;;;;;4984122;28;90607;-49
2022/11/25 12:37:22;;;;;;;78.78;52.35;;;17.00;75.10;;;;;;4982306;28;90035;-47
2022/11/25 12:39:57;;;;;;;82.20;52.30;;;17.10;75.00;;;;;;4980036;27;95686;-50
2022/11/25 12:42:25;;;;;;;79.80;52.47;;;17.10;75.10;;;;;;4979152;28;90733;-45
2022/11/25 12:45:21;;;;;;;81.28;52.15;;;17.20;75.10;;;;;;4977630;28;95034;-46
2022/11/25 12:47:47;;;;;;;80.88;52.20;;;17.10;75.00;;;;;;4984358;28;91180;-44
2022/11/25 12:50:24;;;;;;;83.28;52.28;;;17.10;75.00;;;;;;4978979;28;91628;-46
2022/11/25 12:53:11;;;;;;;79.28;52.15;;;17.20;75.00;;;;;;4980136;28;90084;-44
2022/11/25 12:55:39;;;;;;;80.95;52.17;;;17.20;75.10;;;;;;4978459;28;96359;-45